Bellvale, New York
Current Conditions -  °F | °C
As of 2:53 PM on Thursday 30 Oct 2014 (Local Time) from KFWN Reporting Station
Overcast Overcast  
Wind Chill: 54°   Ceiling: 4600
Heat Index: 54°   Visibility: 10mi
Dew Point: 35°   Wind: 7mph
Humidity: 49%   Direction: 350°N
Pressure: 30"   Gusts: NA
Location:  41.25°N, 74.31°W
Report Text: KFWN 301853Z AUTO 35006KT 10SM OVC046 12/02 A3000 RMK AO2 SLP158 T01220017
Loading
Personal Weather Stations






























Interactive Weather Map
Tropical Storm Tracking
New forecast layout! Learn more

10-Day Weather Forecast

Advertisements
Track Severe Weather on mobile